Impacts METAR Board
IDs:

KSEA - Seattle-Tacoma Intl, WA, US

Updated at: 1600 UTC 16 Feb 2019
Potential Impact None Slight Moderate High
Time 16/04Z 16/05Z 16/06Z 16/07Z 16/08Z 16/09Z 16/10Z 16/11Z 16/12Z 16/13Z 16/14Z 16/15Z 16/16Z
Temp42 42 42 40 38 39 38 37 38 37 37 38 39
Dewpt35 34 33 33 32 33 33 34 34 34 34 35 37
Altim29.70 29.69 29.70 29.71 29.71 29.72 29.72 29.74 29.74 29.75 29.77 29.79 29.80
VIS10 10 10 10 10 10 10 10 10 10 10 10 4
CIG200 60 100 100 55 50 60 60 48 60 70 10 13
CoverBKNBKNBKNBKNBKNBKNBKNBKNOVCBKNBKNOVCOVC
FltCatVFRVFRVFRVFRVFRVFRVFRVFRVFRVFRVFRMVFRMVFR
WX-------------------------RA BR
WDir120120110120401100001301600170
WSpd4 4 6 7 3 3 0 0 0 3 3 0 3
WGst-- -- -- -- -- -- -- -- -- -- -- -- --
Raw hourly METARs
KSEA 160353Z 12004KT 10SM FEW030 FEW120 BKN200 06/02 A2970 RMK AO2 SLP064 T00560017
KSEA 160453Z 12004KT 10SM BKN060 BKN075 06/01 A2969 RMK AO2 SLP064 T00560011
KSEA 160553Z 11006KT 10SM SCT060 BKN100 06/01 A2970 RMK AO2 SLP066 T00560006 10083 20050 53004
KSEA 160653Z 12007KT 10SM SCT060 BKN100 04/01 A2971 RMK AO2 SLP068 T00440006
KSEA 160753Z 04003KT 10SM BKN055 BKN085 03/00 A2971 RMK AO2 SLP069 T00330000 400830033
KSEA 160853Z 11003KT 10SM BKN050 BKN085 04/01 A2972 RMK AO2 SLP071 T00390006 53005
KSEA 160953Z 00000KT 10SM FEW045 BKN060 BKN180 03/01 A2972 RMK AO2 SLP073 T00330006
KSEA 161053Z 00000KT 10SM BKN060 BKN180 03/01 A2974 RMK AO2 SLP078 T00280011
KSEA 161153Z 00000KT 10SM BKN048 OVC060 03/01 A2974 RMK AO2 SLP079 T00330011 10061 20028 51008
KSEA 161253Z 13003KT 10SM FEW020 BKN060 BKN075 03/01 A2975 RMK AO2 SLP084 T00280011
KSEA 161353Z 16003KT 10SM FEW007 SCT050 BKN070 03/01 A2977 RMK AO2 SLP090 T00280011
KSEA 161453Z 00000KT 10SM OVC010 03/02 A2979 RMK AO2 SLP095 T00330017 53015
KSEA 161553Z 17003KT 4SM -RA BR SCT004 SCT010 OVC013 04/03 A2980 RMK AO2 RAB32 SLP101 P0000 T00390028



Page loaded:  16:11 UTC  |   08:11 AM Pacific  |   09:11 AM Mountain  |   10:11 AM Central  |   11:11 AM Eastern

 

ADVISORIES

FORECASTS

FORECASTS

OBSERVATIONS

USER TOOLS

ABOUT US